Time;durP1;ratioP1;P1;durP2;ratioP2;P2;SDS_P1;SDS_P2;PMS_P1;PMS_P2;Temp;Humidity;BMP_temperature;BMP_pressure;BME280_temperature;BME280_humidity;BME280_pressure;Samples;Min_cycle;Max_cycle;Signal;HPM_P1;HPM_P2
2021/12/13 00:01:55;;;;;;;63.42;38.10;;;10.60;99.90;;;;;;4863513;29;20108;-87
2021/12/13 00:04:26;;;;;;;55.70;33.90;;;10.60;99.90;;;;;;4877404;29;20029;-88
2021/12/13 00:06:59;;;;;;;57.85;35.58;;;10.50;99.90;;;;;;4847943;29;20060;-87
2021/12/13 00:09:27;;;;;;;58.28;35.38;;;10.50;99.90;;;;;;4861081;29;20032;-85
2021/12/13 00:11:57;;;;;;;57.97;37.00;;;10.50;99.90;;;;;;4861286;29;20033;-85
2021/12/13 00:14:29;;;;;;;60.53;36.33;;;10.50;99.90;;;;;;4861396;29;20128;-87
2021/12/13 00:17:03;;;;;;;59.80;35.42;;;10.50;99.90;;;;;;4878774;29;20037;-85
2021/12/13 00:20:06;;;;;;;52.72;33.60;;;10.50;99.90;;;;;;4861371;29;20487;-85
2021/12/13 00:22:43;;;;;;;58.72;37.13;;;10.50;99.90;;;;;;4861685;29;20048;-87
2021/12/13 00:25:17;;;;;;;56.92;34.58;;;10.50;99.90;;;;;;4880343;29;20056;-86
2021/12/13 00:27:47;;;;;;;58.28;35.50;;;10.50;99.90;;;;;;4863302;29;20033;-86
2021/12/13 00:30:50;;;;;;;60.83;35.97;;;10.50;99.90;;;;;;4862835;29;20482;-86
2021/12/13 00:33:53;;;;;;;67.88;38.42;;;10.50;99.90;;;;;;4880042;29;20043;-86
2021/12/13 00:36:54;;;;;;;63.97;35.83;;;10.40;99.90;;;;;;4859644;29;20037;-85
2021/12/13 00:39:30;;;;;;;58.03;35.78;;;10.40;99.90;;;;;;4818683;29;20086;-87
2021/12/13 00:41:56;;;;;;;57.30;34.88;;;10.40;99.90;;;;;;4865728;29;20115;-86
2021/12/13 00:44:47;;;;;;;59.22;34.42;;;10.40;99.90;;;;;;4864780;29;20072;-86
2021/12/13 00:47:22;;;;;;;62.22;34.47;;;10.40;99.90;;;;;;4878016;29;20073;-86
2021/12/13 00:50:04;;;;;;;58.35;34.47;;;10.40;99.90;;;;;;4864364;29;20458;-85
2021/12/13 00:52:34;;;;;;;61.45;34.80;;;10.40;99.90;;;;;;4864032;29;20029;-85
2021/12/13 00:55:00;;;;;;;58.40;35.50;;;10.40;99.90;;;;;;4863772;29;20021;-86
2021/12/13 00:57:38;;;;;;;54.63;33.15;;;10.30;99.90;;;;;;4881004;29;20104;-88
2021/12/13 01:00:12;;;;;;;50.95;30.52;;;10.40;99.90;;;;;;4865573;29;20488;-86
2021/12/13 01:02:54;;;;;;;50.60;30.33;;;10.40;99.90;;;;;;4866035;29;20055;-87
2021/12/13 01:05:34;;;;;;;49.20;28.95;;;10.30;99.90;;;;;;4880834;29;20603;-89
2021/12/13 01:08:26;;;;;;;54.63;32.85;;;10.40;99.90;;;;;;4881449;29;20085;-88
2021/12/13 01:10:55;;;;;;;54.08;31.63;;;10.40;99.90;;;;;;4882651;29;20029;-87
2021/12/13 01:13:32;;;;;;;56.92;31.23;;;10.40;99.90;;;;;;4884608;29;20025;-86
2021/12/13 01:17:09;;;;;;;48.47;30.05;;;10.30;99.90;;;;;;4867429;29;20040;-85
2021/12/13 01:22:12;;;;;;;55.38;33.45;;;10.30;99.90;;;;;;4864306;29;20056;-86
2021/12/13 01:27:39;;;;;;;52.15;32.35;;;10.20;99.90;;;;;;4880444;29;20048;-87
2021/12/13 01:30:10;;;;;;;68.15;40.30;;;10.20;99.90;;;;;;4880507;29;20068;-86
2021/12/13 01:32:44;;;;;;;61.80;37.05;;;10.20;99.90;;;;;;4865363;29;20025;-86
2021/12/13 01:35:15;;;;;;;;;;;10.20;99.90;;;;;;4865659;29;20033;-86
2021/12/13 01:37:41;;;;;;;54.92;34.85;;;10.20;99.90;;;;;;4880101;29;20006;-85
2021/12/13 01:40:12;;;;;;;60.95;35.45;;;10.20;99.90;;;;;;4863697;29;20037;-86
2021/12/13 01:42:38;;;;;;;57.13;36.38;;;10.20;99.90;;;;;;4863715;29;20476;-84
2021/12/13 01:45:12;;;;;;;60.60;36.38;;;10.10;99.90;;;;;;4864310;29;20021;-87
2021/12/13 01:47:43;;;;;;;62.95;37.50;;;10.10;99.90;;;;;;4864187;29;20691;-86
2021/12/13 01:50:24;;;;;;;56.97;34.33;;;10.20;99.90;;;;;;4864177;29;20509;-85
2021/12/13 01:52:53;;;;;;;55.88;33.42;;;10.10;99.90;;;;;;4879803;29;20025;-85
2021/12/13 01:55:24;;;;;;;55.70;31.92;;;10.20;99.90;;;;;;4861433;29;20017;-86
2021/12/13 01:58:08;;;;;;;58.90;33.05;;;10.20;99.90;;;;;;4864044;29;20025;-83
2021/12/13 02:03:23;;;;;;;57.63;32.13;;;10.10;99.90;;;;;;4881247;29;19923;-85
2021/12/13 02:05:49;;;;;;;56.92;32.20;;;10.10;99.90;;;;;;4870826;29;20389;-85
2021/12/13 02:08:20;;;;;;;55.47;31.63;;;10.10;99.90;;;;;;4862554;29;20025;-86
2021/12/13 02:10:51;;;;;;;52.35;31.83;;;10.10;99.90;;;;;;4862699;29;20024;-86
2021/12/13 02:13:24;;;;;;;52.72;31.17;;;10.10;99.90;;;;;;4879260;29;20025;-85
2021/12/13 02:18:41;;;;;;;50.67;29.75;;;10.10;99.90;;;;;;4884068;29;19960;-85
2021/12/13 02:21:22;;;;;;;57.95;33.10;;;10.10;99.90;;;;;;4862803;29;20484;-87
2021/12/13 02:23:50;;;;;;;61.72;33.50;;;10.10;99.90;;;;;;4862328;29;20087;-85
2021/12/13 02:26:18;;;;;;;64.30;37.97;;;10.10;99.90;;;;;;4862993;29;20029;-87
2021/12/13 02:28:49;;;;;;;72.20;41.00;;;10.10;99.90;;;;;;4879482;29;20057;-87
2021/12/13 02:31:19;;;;;;;71.13;39.92;;;10.10;99.90;;;;;;4862619;29;20400;-86
2021/12/13 02:33:57;;;;;;;72.05;41.00;;;10.10;99.90;;;;;;4862877;29;20092;-86
2021/12/13 02:36:33;;;;;;;76.13;43.20;;;10.10;99.90;;;;;;4879417;29;20033;-85
2021/12/13 02:39:02;;;;;;;71.05;42.83;;;10.10;99.90;;;;;;4863290;29;20029;-86
2021/12/13 02:41:30;;;;;;;86.03;47.30;;;10.10;99.90;;;;;;4879658;29;20133;-87
2021/12/13 02:44:05;;;;;;;86.03;46.03;;;10.00;99.90;;;;;;4881930;29;20028;-87
2021/12/13 02:46:31;;;;;;;77.18;44.47;;;10.10;99.90;;;;;;4871217;29;20059;-85
2021/12/13 02:49:01;;;;;;;80.93;46.50;;;10.10;99.90;;;;;;4861669;29;20060;-87
2021/12/13 02:51:42;;;;;;;77.25;45.05;;;10.10;99.90;;;;;;4847210;29;20017;-86
2021/12/13 02:54:07;;;;;;;71.78;40.25;;;10.10;99.90;;;;;;4849683;29;20044;-86
2021/12/13 02:56:38;;;;;;;70.25;41.85;;;10.10;99.90;;;;;;4865694;29;20544;-85
2021/12/13 02:59:06;;;;;;;66.80;39.72;;;10.10;99.90;;;;;;4865798;29;20483;-86
2021/12/13 03:01:42;;;;;;;67.85;42.35;;;10.10;99.90;;;;;;4868478;29;20085;-87
2021/12/13 03:04:12;;;;;;;64.25;38.90;;;10.10;99.90;;;;;;4868373;29;20073;-87
2021/12/13 03:06:42;;;;;;;60.58;37.80;;;10.10;99.90;;;;;;4868264;29;20030;-87
2021/12/13 03:09:19;;;;;;;58.17;35.53;;;10.10;99.90;;;;;;4867976;29;20029;-86
2021/12/13 03:11:47;;;;;;;57.58;34.95;;;10.10;99.90;;;;;;4867174;29;20021;-86
2021/12/13 03:14:20;;;;;;;59.67;36.60;;;10.10;99.90;;;;;;4884216;29;20113;-86
2021/12/13 03:17:10;;;;;;;54.65;33.88;;;10.10;99.90;;;;;;4869544;29;20036;-86
2021/12/13 03:19:38;;;;;;;50.15;32.78;;;10.00;99.90;;;;;;4868019;29;20025;-87
2021/12/13 03:22:16;;;;;;;52.92;33.00;;;10.00;99.90;;;;;;4874341;29;20520;-85
2021/12/13 03:24:51;;;;;;;48.42;31.08;;;10.10;99.90;;;;;;4884161;29;20084;-87
2021/12/13 03:27:44;;;;;;;46.90;28.88;;;10.00;99.90;;;;;;4867404;29;20166;-87
2021/12/13 03:30:18;;;;;;;43.25;26.73;;;10.00;99.90;;;;;;4865802;29;20064;-85
2021/12/13 03:32:52;;;;;;;44.47;28.23;;;10.00;99.90;;;;;;4881995;29;20041;-86
2021/12/13 03:35:55;;;;;;;45.83;27.33;;;10.00;99.90;;;;;;4865305;29;20029;-86
2021/12/13 03:38:26;;;;;;;42.25;25.95;;;9.90;99.90;;;;;;4843956;29;20067;-87
2021/12/13 03:40:56;;;;;;;40.72;25.85;;;9.90;99.90;;;;;;4882037;29;20071;-85
2021/12/13 03:43:37;;;;;;;44.80;28.05;;;9.90;99.90;;;;;;4865321;29;20081;-86
2021/12/13 03:46:06;;;;;;;47.00;29.45;;;9.90;99.90;;;;;;4865218;29;20056;-85
2021/12/13 03:48:33;;;;;;;40.83;27.23;;;10.00;99.90;;;;;;4865148;29;20077;-85
2021/12/13 03:51:04;;;;;;;38.03;25.88;;;9.90;99.90;;;;;;4881498;29;20029;-85
2021/12/13 03:53:34;;;;;;;37.95;24.25;;;9.90;99.90;;;;;;4864738;29;20025;-86
2021/12/13 03:56:10;;;;;;;40.45;26.35;;;9.90;99.90;;;;;;4864909;29;20025;-88
2021/12/13 03:58:39;;;;;;;41.88;27.75;;;9.90;99.90;;;;;;4865230;29;20025;-86
2021/12/13 04:01:10;;;;;;;43.17;28.45;;;9.90;99.90;;;;;;4865457;29;20459;-85
2021/12/13 04:03:37;;;;;;;43.65;28.27;;;9.90;99.90;;;;;;4880674;29;20084;-86
2021/12/13 04:06:04;;;;;;;43.05;28.23;;;9.90;99.90;;;;;;4864932;29;20072;-86
2021/12/13 04:08:30;;;;;;;44.45;28.20;;;9.90;99.90;;;;;;4864713;29;20017;-85
2021/12/13 04:11:06;;;;;;;44.35;28.00;;;9.80;99.90;;;;;;4864578;29;20384;-86
2021/12/13 04:13:46;;;;;;;40.58;26.45;;;9.80;99.90;;;;;;4881075;29;20029;-85
2021/12/13 04:16:30;;;;;;;40.30;25.88;;;9.80;99.90;;;;;;4864569;29;20392;-87
2021/12/13 04:21:46;;;;;;;46.65;28.40;;;9.80;99.90;;;;;;4881597;29;19984;-85
2021/12/13 04:24:32;;;;;;;47.65;28.02;;;9.70;99.90;;;;;;4851345;29;20029;-84
2021/12/13 04:27:05;;;;;;;49.20;29.50;;;9.70;99.90;;;;;;4863697;29;20387;-87
2021/12/13 04:29:37;;;;;;;47.33;28.15;;;9.70;99.90;;;;;;4849660;29;20053;-84
2021/12/13 04:32:23;;;;;;;44.88;28.00;;;9.80;99.90;;;;;;4864549;29;20021;-85
2021/12/13 04:34:52;;;;;;;57.30;31.70;;;9.70;99.90;;;;;;4866297;29;20056;-86
2021/12/13 04:37:23;;;;;;;53.58;30.40;;;9.70;99.90;;;;;;4883206;29;20033;-86
2021/12/13 04:39:55;;;;;;;46.85;30.13;;;9.70;99.90;;;;;;4866265;29;20461;-86
2021/12/13 04:42:22;;;;;;;53.30;31.73;;;9.70;99.90;;;;;;4865585;29;20075;-85
2021/12/13 04:44:59;;;;;;;56.28;31.83;;;9.80;99.90;;;;;;4865653;29;20081;-86
2021/12/13 04:47:32;;;;;;;55.60;31.83;;;9.70;99.90;;;;;;4866052;29;20032;-87
2021/12/13 04:50:06;;;;;;;49.63;30.83;;;9.70;99.90;;;;;;4866671;29;20021;-87
2021/12/13 04:52:33;;;;;;;56.95;32.95;;;9.70;99.90;;;;;;4884291;29;20037;-87
2021/12/13 04:55:00;;;;;;;52.95;31.17;;;9.60;99.90;;;;;;4867818;29;20025;-87
2021/12/13 04:57:27;;;;;;;58.13;31.50;;;9.70;99.90;;;;;;4866789;29;20069;-86
2021/12/13 04:59:57;;;;;;;58.60;32.45;;;9.70;99.90;;;;;;4869729;29;20185;-85
2021/12/13 05:02:33;;;;;;;59.55;32.72;;;9.70;99.90;;;;;;4871495;29;20029;-86
2021/12/13 05:05:02;;;;;;;63.03;33.53;;;9.60;99.90;;;;;;4874636;29;20029;-87
2021/12/13 05:07:29;;;;;;;61.25;34.65;;;9.60;99.90;;;;;;4875041;29;20029;-87
2021/12/13 05:09:56;;;;;;;61.03;32.97;;;9.60;99.90;;;;;;4881761;29;20009;-84
2021/12/13 05:12:26;;;;;;;57.60;33.15;;;9.60;99.90;;;;;;4888380;29;20018;-86
2021/12/13 05:15:05;;;;;;;61.25;32.97;;;9.70;99.90;;;;;;4888216;29;20009;-85
2021/12/13 05:17:42;;;;;;;59.95;31.92;;;9.60;99.90;;;;;;4888496;29;20072;-86
2021/12/13 05:20:26;;;;;;;59.88;33.17;;;9.70;99.90;;;;;;4886267;29;20048;-84
2021/12/13 05:22:53;;;;;;;66.72;34.47;;;9.60;99.90;;;;;;4900425;29;20033;-87
2021/12/13 05:25:28;;;;;;;64.93;35.03;;;9.60;99.90;;;;;;4884745;29;20061;-87
2021/12/13 05:28:09;;;;;;;68.38;36.40;;;9.60;99.90;;;;;;4881307;29;20045;-84
2021/12/13 05:30:42;;;;;;;75.40;38.72;;;9.60;99.90;;;;;;4878515;29;20033;-86
2021/12/13 05:33:10;;;;;;;67.47;36.10;;;9.60;99.90;;;;;;4867849;29;20025;-86
2021/12/13 05:35:41;;;;;;;66.82;35.67;;;9.60;99.90;;;;;;4868178;29;20033;-87
2021/12/13 05:38:11;;;;;;;66.63;34.67;;;9.60;99.90;;;;;;4865896;29;20033;-87
2021/12/13 05:40:43;;;;;;;67.45;36.00;;;9.60;99.90;;;;;;4862805;29;20132;-86
2021/12/13 05:43:23;;;;;;;60.83;33.57;;;9.60;99.90;;;;;;4864021;29;20021;-86
2021/12/13 05:46:14;;;;;;;68.47;35.40;;;9.60;99.90;;;;;;4864680;29;20037;-86
2021/12/13 05:48:47;;;;;;;59.38;32.05;;;9.60;99.90;;;;;;4865244;29;20033;-87
2021/12/13 05:51:29;;;;;;;56.83;32.55;;;9.60;99.90;;;;;;4864860;29;20028;-87
2021/12/13 05:54:04;;;;;;;61.90;31.90;;;9.50;99.90;;;;;;4864767;29;20093;-87
2021/12/13 05:56:44;;;;;;;53.67;29.77;;;9.50;99.90;;;;;;4867481;29;20026;-88
2021/12/13 05:59:33;;;;;;;55.72;30.38;;;9.60;99.90;;;;;;4864001;29;20076;-87
2021/12/13 06:02:13;;;;;;;64.25;34.47;;;9.50;99.90;;;;;;4867460;29;20120;-89
2021/12/13 06:04:57;;;;;;;63.55;33.75;;;9.50;99.90;;;;;;4865909;29;20029;-88
2021/12/13 06:07:26;;;;;;;60.17;31.92;;;9.50;99.90;;;;;;4866227;29;20050;-88
2021/12/13 06:10:15;;;;;;;59.30;31.35;;;9.50;99.90;;;;;;4866881;29;20029;-88
2021/12/13 06:13:08;;;;;;;60.47;32.78;;;9.50;99.90;;;;;;4883439;29;20033;-88
2021/12/13 06:15:40;;;;;;;60.95;31.45;;;9.50;99.90;;;;;;4861670;29;20045;-87
2021/12/13 06:18:13;;;;;;;56.05;30.95;;;9.50;99.90;;;;;;4864114;29;20025;-87
2021/12/13 06:20:48;;;;;;;57.85;31.05;;;9.50;99.90;;;;;;4864205;29;20415;-88
2021/12/13 06:23:20;;;;;;;60.00;31.55;;;9.50;99.90;;;;;;4880986;29;20029;-85
2021/12/13 06:25:49;;;;;;;56.42;29.50;;;9.50;99.90;;;;;;4863398;29;20116;-86
2021/12/13 06:28:37;;;;;;;53.00;29.35;;;9.50;99.90;;;;;;4867085;29;20082;-86
2021/12/13 06:31:12;;;;;;;52.33;28.20;;;9.50;99.90;;;;;;4868615;29;20030;-87
2021/12/13 06:33:49;;;;;;;51.75;26.33;;;9.50;99.90;;;;;;4880282;29;20570;-87
2021/12/13 06:36:41;;;;;;;50.15;27.00;;;9.50;99.90;;;;;;4888496;29;20032;-85
2021/12/13 06:39:16;;;;;;;47.80;26.73;;;9.40;99.90;;;;;;4884001;29;20084;-86
2021/12/13 06:41:48;;;;;;;48.03;27.65;;;9.50;99.90;;;;;;4867899;29;20185;-86
2021/12/13 06:44:21;;;;;;;54.30;28.33;;;9.50;99.90;;;;;;4858115;29;20017;-86
2021/12/13 06:46:53;;;;;;;54.83;28.27;;;9.50;99.90;;;;;;4867675;29;20029;-86
2021/12/13 06:49:32;;;;;;;51.03;27.67;;;9.50;99.90;;;;;;4868008;29;20037;-86
2021/12/13 06:52:21;;;;;;;49.50;27.15;;;9.40;99.90;;;;;;4867685;29;20021;-85
2021/12/13 06:54:54;;;;;;;46.20;26.10;;;9.50;99.90;;;;;;4867169;29;20029;-86
2021/12/13 06:57:19;;;;;;;47.78;25.73;;;9.50;99.90;;;;;;4866460;29;20029;-86
2021/12/13 06:59:51;;;;;;;44.55;24.35;;;9.40;99.90;;;;;;4865542;29;20049;-86
2021/12/13 07:02:26;;;;;;;50.13;26.55;;;9.50;99.90;;;;;;4867904;29;20575;-85
2021/12/13 07:04:59;;;;;;;50.30;27.90;;;9.40;99.90;;;;;;4886755;29;20030;-87
2021/12/13 07:07:35;;;;;;;53.20;28.13;;;9.50;99.90;;;;;;4865508;29;20088;-85
2021/12/13 07:10:14;;;;;;;54.20;30.27;;;9.40;99.90;;;;;;4865623;29;20032;-87
2021/12/13 07:12:52;;;;;;;46.78;26.20;;;9.40;99.90;;;;;;4866492;29;20033;-89
2021/12/13 07:15:27;;;;;;;54.55;30.70;;;9.40;99.90;;;;;;4883582;29;20100;-88
2021/12/13 07:18:27;;;;;;;52.17;29.08;;;9.50;99.90;;;;;;4872167;29;20111;-88
2021/12/13 07:21:21;;;;;;;47.90;27.10;;;9.40;99.90;;;;;;4885163;29;20033;-89
2021/12/13 07:23:55;;;;;;;48.92;26.30;;;9.40;99.90;;;;;;4864394;29;20388;-88
2021/12/13 07:26:53;;;;;;;51.58;28.52;;;9.40;99.90;;;;;;4865896;29;20495;-87
2021/12/13 07:29:45;;;;;;;48.53;27.38;;;9.40;99.90;;;;;;4841300;29;20284;-87
2021/12/13 07:32:29;;;;;;;48.80;26.52;;;9.40;99.90;;;;;;4865956;29;20073;-86
2021/12/13 07:35:40;;;;;;;44.58;25.98;;;9.40;99.90;;;;;;4871320;29;20108;-86
2021/12/13 07:38:19;;;;;;;48.03;26.27;;;9.40;99.90;;;;;;4868160;29;20076;-88
2021/12/13 07:41:04;;;;;;;52.38;28.42;;;9.40;99.90;;;;;;4868196;29;20037;-88
2021/12/13 07:43:39;;;;;;;50.10;28.83;;;9.40;99.90;;;;;;4872289;29;20029;-88
2021/12/13 07:46:09;;;;;;;47.67;27.10;;;9.30;99.90;;;;;;4870917;29;20033;-89
2021/12/13 07:48:41;;;;;;;47.75;27.23;;;9.30;99.90;;;;;;4874618;29;20036;-89
2021/12/13 07:51:15;;;;;;;47.92;25.60;;;9.30;99.90;;;;;;4867058;29;20037;-87
2021/12/13 07:53:41;;;;;;;45.25;25.38;;;9.40;99.90;;;;;;4866906;29;20041;-88
2021/12/13 07:56:09;;;;;;;44.35;26.63;;;9.40;99.90;;;;;;4865422;29;20080;-88
2021/12/13 07:58:44;;;;;;;52.00;28.92;;;9.40;99.90;;;;;;4865380;29;20061;-87
2021/12/13 08:01:23;;;;;;;47.47;27.30;;;9.30;99.90;;;;;;4865543;29;20396;-88
2021/12/13 08:04:22;;;;;;;48.65;27.30;;;9.40;99.90;;;;;;4867218;29;20115;-87
2021/12/13 08:06:58;;;;;;;49.33;28.42;;;9.30;99.90;;;;;;4866467;29;20060;-87
2021/12/13 08:09:27;;;;;;;48.50;28.05;;;9.30;99.90;;;;;;4866592;29;20116;-88
2021/12/13 08:12:00;;;;;;;52.65;28.63;;;9.30;99.90;;;;;;4866370;29;20021;-88
2021/12/13 08:14:37;;;;;;;44.20;26.95;;;9.40;99.90;;;;;;4865778;29;20028;-88
2021/12/13 08:17:17;;;;;;;47.65;27.33;;;9.40;99.90;;;;;;4870830;29;20479;-87
2021/12/13 08:19:50;;;;;;;44.80;25.65;;;9.30;99.90;;;;;;4866554;29;20025;-87
2021/12/13 08:22:19;;;;;;;44.08;25.13;;;9.40;99.90;;;;;;4866063;29;20073;-87
2021/12/13 08:24:52;;;;;;;41.78;25.75;;;9.40;99.90;;;;;;4866304;29;20032;-88
2021/12/13 08:27:34;;;;;;;41.13;24.55;;;9.40;99.90;;;;;;4864619;29;20033;-87
2021/12/13 08:30:10;;;;;;;45.58;26.98;;;9.40;99.90;;;;;;4863863;29;20072;-88
2021/12/13 08:32:36;;;;;;;43.88;26.33;;;9.40;99.90;;;;;;4866433;29;20029;-89
2021/12/13 08:35:05;;;;;;;42.53;25.38;;;9.40;99.90;;;;;;4881533;29;20062;-90
2021/12/13 08:37:34;;;;;;;40.42;25.85;;;9.40;99.90;;;;;;4865762;29;20040;-89
2021/12/13 08:40:09;;;;;;;41.45;24.45;;;9.40;99.90;;;;;;4864762;29;20044;-88
2021/12/13 08:42:38;;;;;;;41.67;25.17;;;9.40;99.90;;;;;;4867863;29;20031;-87
2021/12/13 08:45:08;;;;;;;40.05;25.38;;;9.40;99.90;;;;;;4866178;29;20506;-88
2021/12/13 08:47:44;;;;;;;36.03;23.50;;;9.50;99.90;;;;;;4882892;29;20040;-88
2021/12/13 08:50:16;;;;;;;39.55;23.88;;;9.50;99.90;;;;;;4863288;29;20037;-89
2021/12/13 08:52:44;;;;;;;39.92;24.40;;;9.50;99.90;;;;;;4869549;29;20120;-88
2021/12/13 08:55:12;;;;;;;38.70;23.63;;;9.50;99.90;;;;;;4864411;29;20025;-88
2021/12/13 08:58:17;;;;;;;39.17;24.35;;;9.50;99.90;;;;;;4865076;29;20040;-90
2021/12/13 09:01:06;;;;;;;40.25;23.27;;;9.50;99.90;;;;;;4859857;29;20033;-88
2021/12/13 09:03:50;;;;;;;34.33;21.98;;;9.50;99.90;;;;;;4859253;29;20033;-89
2021/12/13 09:06:19;;;;;;;35.97;22.70;;;9.50;99.90;;;;;;4855555;29;20452;-90
2021/12/13 09:08:57;;;;;;;35.03;22.65;;;9.50;99.90;;;;;;4865007;29;20101;-90
2021/12/13 09:11:43;;;;;;;36.90;23.25;;;9.50;99.90;;;;;;4864472;29;20029;-89
2021/12/13 09:14:13;;;;;;;35.65;22.25;;;9.50;99.90;;;;;;4879505;29;20037;-89
2021/12/13 09:16:45;;;;;;;38.92;23.90;;;9.50;99.90;;;;;;4863994;29;20017;-89
2021/12/13 09:19:22;;;;;;;38.85;23.52;;;9.50;99.90;;;;;;4864797;29;20120;-89
2021/12/13 09:21:53;;;;;;;37.42;23.45;;;9.50;99.90;;;;;;4864029;29;20044;-87
2021/12/13 09:24:32;;;;;;;35.00;22.63;;;9.50;99.90;;;;;;4864143;29;20040;-90
2021/12/13 09:27:32;;;;;;;34.42;21.45;;;9.50;99.90;;;;;;4863490;29;20116;-89
2021/12/13 09:30:16;;;;;;;37.35;21.02;;;9.50;99.90;;;;;;4858881;29;20084;-90
2021/12/13 09:32:44;;;;;;;;;;;9.50;99.90;;;;;;4871998;29;20032;-87
2021/12/13 09:35:30;;;;;;;30.52;19.25;;;9.50;99.90;;;;;;4863774;29;19912;-90
2021/12/13 09:38:01;;;;;;;32.67;20.58;;;9.50;99.90;;;;;;4864491;29;20041;-88
2021/12/13 09:40:40;;;;;;;35.08;22.13;;;9.60;99.90;;;;;;4866093;29;20467;-85
2021/12/13 09:43:07;;;;;;;34.38;21.52;;;9.60;99.90;;;;;;4867201;29;20053;-88
2021/12/13 09:45:47;;;;;;;33.15;21.38;;;9.60;99.90;;;;;;4864146;29;20288;-86
2021/12/13 09:48:39;;;;;;;34.50;22.08;;;9.60;99.90;;;;;;4863630;29;20025;-86
2021/12/13 09:51:25;;;;;;;33.35;21.52;;;9.60;99.90;;;;;;4864469;29;20036;-89
2021/12/13 09:53:54;;;;;;;33.17;19.95;;;9.60;99.90;;;;;;4861664;29;20021;-90
2021/12/13 09:56:23;;;;;;;29.88;20.20;;;9.60;99.90;;;;;;4867571;29;20044;-91
2021/12/13 09:58:56;;;;;;;33.63;20.33;;;9.60;99.90;;;;;;4862694;29;20032;-85
2021/12/13 10:01:33;;;;;;;29.48;18.80;;;9.60;99.90;;;;;;4859658;29;20040;-85
2021/12/13 10:04:08;;;;;;;30.25;19.73;;;9.60;99.90;;;;;;4877862;29;20033;-86
2021/12/13 10:06:42;;;;;;;28.88;19.90;;;9.60;99.90;;;;;;4879321;29;20039;-87
2021/12/13 10:09:16;;;;;;;26.30;18.52;;;9.60;99.90;;;;;;4862715;29;20025;-87
2021/12/13 10:11:53;;;;;;;29.33;19.10;;;9.60;99.90;;;;;;4865547;29;20120;-87
2021/12/13 10:14:24;;;;;;;28.33;18.90;;;9.50;99.90;;;;;;4861091;29;20033;-88
2021/12/13 10:16:54;;;;;;;27.90;17.45;;;9.50;99.90;;;;;;4861004;29;20109;-88
2021/12/13 10:19:38;;;;;;;24.23;16.45;;;9.50;99.90;;;;;;4862864;29;20490;-88
2021/12/13 10:22:06;;;;;;;23.27;16.85;;;9.60;99.90;;;;;;4863520;29;20048;-86
2021/12/13 10:24:46;;;;;;;24.20;15.02;;;9.60;99.90;;;;;;4877091;29;20029;-88
2021/12/13 10:27:13;;;;;;;23.30;15.68;;;9.60;99.90;;;;;;4863603;29;20029;-86
2021/12/13 10:29:43;;;;;;;22.38;15.55;;;9.60;99.90;;;;;;4861554;29;20053;-86
2021/12/13 10:32:13;;;;;;;26.40;16.80;;;9.60;99.90;;;;;;4859128;29;20646;-85
2021/12/13 10:34:45;;;;;;;24.33;17.33;;;9.60;99.90;;;;;;4855828;29;20723;-86
2021/12/13 10:37:39;;;;;;;30.35;18.95;;;9.60;99.90;;;;;;4859511;29;20054;-87
2021/12/13 10:40:16;;;;;;;24.73;16.88;;;9.60;99.90;;;;;;4859086;29;20105;-87
2021/12/13 10:43:13;;;;;;;25.90;18.20;;;9.60;99.90;;;;;;4861805;29;20021;-86
2021/12/13 10:45:45;;;;;;;26.27;17.40;;;9.60;99.90;;;;;;4858198;29;20049;-86
2021/12/13 10:48:13;;;;;;;24.38;16.48;;;9.60;99.90;;;;;;4866653;29;20062;-89
2021/12/13 10:50:48;;;;;;;23.67;16.23;;;9.50;99.90;;;;;;4884064;29;20135;-91
2021/12/13 10:53:19;;;;;;;23.05;16.40;;;9.60;99.90;;;;;;4866210;29;20290;-86
2021/12/13 10:55:53;;;;;;;24.67;16.63;;;9.60;99.90;;;;;;4863463;29;20117;-87
2021/12/13 10:58:28;;;;;;;23.25;15.90;;;9.60;99.90;;;;;;4859314;29;20060;-87
2021/12/13 11:01:22;;;;;;;22.90;15.25;;;9.70;99.90;;;;;;4846861;29;20180;-87
2021/12/13 11:03:50;;;;;;;23.55;15.18;;;9.70;99.90;;;;;;4866917;29;20041;-87
2021/12/13 11:06:17;;;;;;;22.15;15.85;;;9.70;99.90;;;;;;4861586;29;20502;-85
2021/12/13 11:08:43;;;;;;;23.45;15.88;;;9.70;99.90;;;;;;4860341;29;20471;-87
2021/12/13 11:11:31;;;;;;;20.67;14.57;;;9.70;99.90;;;;;;4857958;29;20857;-86
2021/12/13 11:14:01;;;;;;;19.55;13.95;;;9.80;99.90;;;;;;4864861;29;20128;-87
2021/12/13 11:16:31;;;;;;;20.75;14.07;;;9.70;99.90;;;;;;4861852;29;20472;-88
2021/12/13 11:18:58;;;;;;;20.23;14.90;;;9.80;99.90;;;;;;4864352;29;20025;-89
2021/12/13 11:21:30;;;;;;;18.77;14.05;;;9.80;99.90;;;;;;4864542;29;20044;-89
2021/12/13 11:23:56;;;;;;;21.52;14.55;;;9.80;99.90;;;;;;4874684;29;20030;-87
2021/12/13 11:26:27;;;;;;;21.92;14.52;;;9.80;99.90;;;;;;4863847;29;20120;-89
2021/12/13 11:28:54;;;;;;;20.55;13.35;;;9.80;99.90;;;;;;4864608;29;20043;-87
2021/12/13 11:31:28;;;;;;;19.95;14.10;;;9.80;99.90;;;;;;4865403;29;20092;-87
2021/12/13 11:34:01;;;;;;;21.45;14.45;;;9.80;99.90;;;;;;4863592;29;20104;-88
2021/12/13 11:36:44;;;;;;;21.33;14.47;;;9.70;99.90;;;;;;4862628;29;20033;-87
2021/12/13 11:39:35;;;;;;;22.20;14.30;;;9.70;99.90;;;;;;4864803;29;20029;-89
2021/12/13 11:42:22;;;;;;;19.17;13.70;;;9.80;99.90;;;;;;4864996;29;20329;-87
2021/12/13 11:44:54;;;;;;;20.90;13.88;;;9.70;99.90;;;;;;4871668;29;20033;-88
2021/12/13 11:47:57;;;;;;;18.45;13.30;;;9.80;99.90;;;;;;4879372;29;20033;-88
2021/12/13 11:51:00;;;;;;;24.53;13.83;;;9.70;99.90;;;;;;4878944;29;20039;-87
2021/12/13 11:53:52;;;;;;;19.23;13.48;;;9.70;99.90;;;;;;4846500;29;20299;-87
2021/12/13 11:56:41;;;;;;;17.98;13.25;;;9.70;99.90;;;;;;4863800;29;20148;-87
2021/12/13 11:59:16;;;;;;;19.25;13.73;;;9.70;99.90;;;;;;4855426;29;20037;-87
2021/12/13 12:02:11;;;;;;;18.25;13.07;;;9.70;99.90;;;;;;4844653;29;20045;-90
2021/12/13 12:05:11;;;;;;;19.52;13.13;;;9.70;99.90;;;;;;4856622;29;20408;-88
2021/12/13 12:08:26;;;;;;;19.30;13.48;;;9.70;99.90;;;;;;4877687;29;20132;-88
2021/12/13 12:11:28;;;;;;;17.77;13.05;;;9.70;99.90;;;;;;4864998;29;20048;-87
2021/12/13 12:14:05;;;;;;;18.60;12.85;;;9.70;99.90;;;;;;4850934;29;20041;-88
2021/12/13 12:16:46;;;;;;;17.50;11.68;;;9.70;99.90;;;;;;4860652;29;20089;-86
2021/12/13 12:19:28;;;;;;;17.02;11.65;;;9.70;99.90;;;;;;4860166;29;20447;-87
2021/12/13 12:22:08;;;;;;;16.55;12.23;;;9.70;99.90;;;;;;4860205;29;20033;-88
2021/12/13 12:24:37;;;;;;;15.80;12.32;;;9.80;99.90;;;;;;4862333;29;20071;-88
2021/12/13 12:27:05;;;;;;;15.77;11.38;;;9.80;99.90;;;;;;4860049;29;20028;-87
2021/12/13 12:29:38;;;;;;;18.52;12.75;;;9.80;99.90;;;;;;4861840;29;20136;-86
2021/12/13 12:32:07;;;;;;;16.95;12.38;;;9.90;99.90;;;;;;4861948;29;20070;-88
2021/12/13 12:34:45;;;;;;;15.65;11.73;;;9.90;99.90;;;;;;4879617;29;20037;-89
2021/12/13 12:37:49;;;;;;;16.63;11.48;;;10.00;99.90;;;;;;4863387;29;20108;-87
2021/12/13 12:40:24;;;;;;;13.65;10.75;;;10.00;99.90;;;;;;4880865;29;20072;-87
2021/12/13 12:42:53;;;;;;;16.02;11.45;;;10.00;99.90;;;;;;4864148;29;20376;-87
2021/12/13 12:45:24;;;;;;;15.77;11.95;;;10.00;99.90;;;;;;4863739;29;20101;-88
2021/12/13 12:47:52;;;;;;;15.05;10.52;;;10.00;99.90;;;;;;4865883;29;20056;-88
2021/12/13 12:50:30;;;;;;;15.07;11.35;;;10.00;99.90;;;;;;4865366;29;20025;-88
2021/12/13 12:53:00;;;;;;;15.15;11.15;;;10.10;99.90;;;;;;4862029;29;20033;-88
2021/12/13 13:03:13;;;;;;;;;;;10.10;99.90;;;;;;4868451;29;20065;-92
2021/12/13 13:05:41;;;;;;;14.05;10.02;;;10.00;99.90;;;;;;4850519;29;19912;-92
2021/12/13 13:08:08;;;;;;;16.23;10.63;;;10.00;99.90;;;;;;4863586;29;20065;-90
2021/12/13 13:10:46;;;;;;;13.90;10.63;;;10.00;99.90;;;;;;4854435;29;20083;-92
2021/12/13 13:13:13;;;;;;;14.85;10.52;;;10.00;99.90;;;;;;4843266;29;20112;-91
2021/12/13 13:15:49;;;;;;;13.70;10.68;;;10.00;99.90;;;;;;4843371;29;20058;-91
2021/12/13 13:18:22;;;;;;;14.07;10.35;;;10.00;99.90;;;;;;4846536;29;20024;-91
2021/12/13 13:20:52;;;;;;;14.32;10.50;;;10.00;99.90;;;;;;4850219;29;20040;-87
2021/12/13 13:23:22;;;;;;;15.10;10.43;;;10.00;99.90;;;;;;4843037;29;20029;-87
2021/12/13 13:25:53;;;;;;;13.40;10.65;;;10.00;99.90;;;;;;4839270;29;20034;-88
2021/12/13 13:28:23;;;;;;;12.40;10.15;;;10.00;99.90;;;;;;4839896;29;20183;-84
2021/12/13 13:31:05;;;;;;;13.63;9.63;;;10.00;99.90;;;;;;4834612;29;20064;-87
2021/12/13 13:33:48;;;;;;;12.88;8.70;;;10.00;99.90;;;;;;4846125;29;20045;-83
2021/12/13 13:36:16;;;;;;;;;;;10.00;99.90;;;;;;4851206;29;20033;-86
2021/12/13 13:38:42;;;;;;;10.75;7.88;;;10.00;99.90;;;;;;4852888;29;19934;-85
2021/12/13 13:41:12;;;;;;;10.73;7.80;;;10.00;99.90;;;;;;4847095;29;20090;-88
2021/12/13 13:43:39;;;;;;;11.55;8.50;;;10.00;99.90;;;;;;4860885;29;20456;-85